KDMA/DMA METAR and TAF weather

Enter ICAO airport designator
Station Type Date Time Source
KDMA METAR 2020/02/26 10:56 UTC NOAA

KDMA 261056Z AUTO 03015KT 10SM CLR 07/M15 A3032 RMK AO2 SLP253 T00741148 FZRANO $


Station Type Date Time Source
KDMA Decoded METAR 2020/02/26 10:56 UTC NOAA

Davis-Monthan Air Force Base, AZ, United States (KDMA) 32-10N 110-53W
Feb 26, 2020 - 05:56 AM EST / 2020.02.26 1056 UTC
Wind: from the NNE (030 degrees) at 17 MPH (15 KT):0
Visibility: 10 mile(s):0
Sky conditions: clear
Temperature: 45.3 F (7.4 C)
Dew Point: 5.4 F (-14.8 C)
Relative Humidity: 18%
Pressure (altimeter): 30.32 in. Hg (1026 hPa)
ob: KDMA 261056Z AUTO 03015KT 10SM CLR 07/M15 A3032 RMK AO2 SLP253 T00741148 FZRANO
cycle: 11

Station Type Date Time Source
KDMA TAF 2020/02/26 06:27 UTC NOAA

TAF TAF KDMA 260600Z 2606/2712 05009KT 9999 SKC 520009 QNH3030INS
BECMG 2617/2618 09010G25KT 9999 SKC 520009 QNH3028INS
BECMG 2621/2622 07012KT 9999 SKC QNH3023INS TX17/2622Z TN05/2612Z

Example: see airport list